Bookmark and Share
Track history (hours):
 

Jolyn

Last reported at 2014-Apr-19 18:17 UTC. Time now 2014-Apr-23 13:13 UTC.
Position N 56°03' E 016°53'.

Length 89 m; draft 5.3 m.

Type: Cargo ship. MMSI: 306813000.

NotesDate/timePositionNaut miles runAvg speedWind from/ knotsBaromVisibWave heightAir tempDewpointWater temp
2014-Apr-19 18:17N 56°03' E 016°53'16 9.5
2014-Apr-19 16:33N 55°49' E 016°39'32 9.5
2014-Apr-19 13:13N 55°23' E 016°07'9 9.9
2014-Apr-19 12:16N 55°15' E 015°58'7 9.9
2014-Apr-19 11:33N 55°09' E 015°52'10 9.8
2014-Apr-19 10:33N 55°01' E 015°43'10 9.7
2014-Apr-19 09:31N 54°52' E 015°33'12 9.7
2014-Apr-19 08:16N 54°42' E 015°22'8 9.8
2014-Apr-19 07:30N 54°36' E 015°14'1010.0
2014-Apr-19 06:27N 54°27' E 015°04'9 9.9
2014-Apr-19 05:33N 54°20' E 014°55'10 9.6
2014-Apr-19 04:33N 54°12' E 014°45'1010.3
2014-Apr-19 03:33N 54°06' E 014°31'1010.2
2014-Apr-19 02:33N 53°60' E 014°17'7 7.3
2014-Apr-19 01:33N 53°53' E 014°16'9 8.8
2014-Apr-19 00:33N 53°45' E 014°25'1110.7
2014-Apr-18 23:33N 53°37' E 014°35'9 9.2
2014-Apr-18 22:33N 53°27' E 014°36'3 0.6
2014-Apr-18 17:22N 53°24' E 014°36'0 0.0
2014-Apr-18 13:22N 53°24' E 014°36'0 0.0
2014-Apr-18 11:07N 53°24' E 014°36'0 0.0
2014-Apr-18 05:22N 53°24' E 014°36'0 0.1
2014-Apr-18 04:28N 53°24' E 014°36'0 0.0
2014-Apr-18 03:28N 53°24' E 014°36'0 0.0
2014-Apr-18 02:10N 53°24' E 014°36'0 0.0
2014-Apr-18 01:22N 53°24' E 014°36'0 0.0
2014-Apr-18 00:28N 53°24' E 014°36'0 0.0
2014-Apr-17 18:10N 53°24' E 014°36'0 0.0
2014-Apr-17 17:16N 53°24' E 014°36'0 0.0
2014-Apr-17 16:22N 53°24' E 014°36'0 0.0
2014-Apr-17 15:28N 53°24' E 014°36'0 0.0
2014-Apr-17 14:31N 53°24' E 014°36'0 0.0
2014-Apr-17 13:31N 53°24' E 014°36'0 0.0
2014-Apr-17 12:31N 53°24' E 014°36'0 0.0
2014-Apr-17 11:31N 53°24' E 014°36'0 0.0
2014-Apr-17 10:28N 53°24' E 014°36'0 0.0
2014-Apr-17 09:04N 53°24' E 014°36'0 0.0
2014-Apr-17 08:25N 53°24' E 014°36'0 0.0
2014-Apr-17 06:10N 53°24' E 014°36'0 0.0
2014-Apr-17 05:28N 53°24' E 014°36'0 0.0
2014-Apr-17 04:28N 53°24' E 014°36'0 0.0
2014-Apr-17 03:28N 53°24' E 014°36'0 0.0
2014-Apr-17 02:28N 53°24' E 014°36'0 0.0
2014-Apr-17 01:22N 53°24' E 014°36'0 0.0
2014-Apr-17 00:31N 53°24' E 014°36'0 0.0
2014-Apr-16 23:28N 53°24' E 014°36'0 0.0
2014-Apr-16 22:28N 53°24' E 014°36'0 0.0
2014-Apr-16 21:31N 53°24' E 014°36'0 0.0
2014-Apr-16 20:25N 53°24' E 014°36'0 0.0
2014-Apr-16 19:28N 53°24' E 014°36'0 0.0
2014-Apr-16 18:16N 53°24' E 014°36'0 0.0
2014-Apr-16 17:16N 53°24' E 014°36'0 0.0
2014-Apr-16 16:28N 53°24' E 014°36'1 1.6
2014-Apr-16 15:33N 53°26' E 014°36'8 8.4
2014-Apr-16 14:34N 53°34' E 014°36'1010.2
2014-Apr-16 13:33N 53°43' E 014°28'1010.2
2014-Apr-16 12:33N 53°51' E 014°17'7 6.8
2014-Apr-16 11:33N 53°58' E 014°16'1110.9
2014-Apr-16 10:33N 54°08' E 014°09'1211.6
2014-Apr-16 09:33N 54°18' E 014°00'8 8.4
2014-Apr-16 08:33N 54°25' E 013°52'1211.6
2014-Apr-16 07:33N 54°36' E 013°43'1111.1
2014-Apr-16 06:33N 54°43' E 013°29'1111.5
2014-Apr-16 05:33N 54°43' E 013°09'1312.5
2014-Apr-16 04:33N 54°42' E 012°48'1313.2
2014-Apr-16 03:33N 54°35' E 012°28'1212.1
2014-Apr-16 02:34N 54°26' E 012°13'1211.7
2014-Apr-16 01:33N 54°24' E 011°54'1211.8
2014-Apr-16 00:33N 54°28' E 011°34'1211.9
2014-Apr-15 23:33N 54°33' E 011°16'3510.7
2014-Apr-15 20:15N 54°45' E 010°18'811.8
2014-Apr-15 19:33N 54°51' E 010°10'1211.8
2014-Apr-15 18:33N 55°02' E 010°01'1212.0
2014-Apr-15 17:33N 55°12' E 009°48'  
2014-Apr-13 02:33N 56°44' E 011°51'1110.8
2014-Apr-13 01:33N 56°55' E 011°46'1310.5
2014-Apr-13 00:18N 57°07' E 011°37'810.6
2014-Apr-12 23:33N 57°14' E 011°31'1111.1
2014-Apr-12 22:33N 57°24' E 011°22'9 9.2
2014-Apr-12 21:33N 57°32' E 011°14'10 9.9
2014-Apr-12 20:33N 57°39' E 011°00'1110.5
2014-Apr-12 19:33N 57°46' E 010°45'1211.7
2014-Apr-12 18:33N 57°45' E 010°23'1211.8
2014-Apr-12 17:32N 57°41' E 010°02'6211.5
2014-Apr-12 12:09N 57°08' E 008°25'10510.9
2014-Apr-12 02:33N 55°38' E 006°47'1110.8
2014-Apr-12 01:33N 55°29' E 006°38'7010.8
2014-Apr-11 19:05N 54°28' E 005°39'3011.4
2014-Apr-11 16:27N 54°01' E 005°14'1211.8
2014-Apr-11 15:26N 53°51' E 005°04'2211.9
2014-Apr-11 13:33N 53°31' E 004°47'1211.9
2014-Apr-11 12:33N 53°20' E 004°39'1211.5
2014-Apr-11 11:33N 53°10' E 004°30'1111.0
2014-Apr-11 10:33N 53°00' E 004°21'1110.5
2014-Apr-11 09:33N 52°51' E 004°12'1010.4
2014-Apr-11 08:34N 52°43' E 004°03'1010.3
2014-Apr-11 07:33N 52°34' E 003°52'1010.1
2014-Apr-11 06:33N 52°26' E 003°43'1110.1
2014-Apr-11 05:31N 52°16' E 003°36'2010.4
2014-Apr-11 03:33N 51°58' E 003°22'1111.0
2014-Apr-11 02:33N 51°47' E 003°17'1010.3
2014-Apr-11 01:33N 51°37' E 003°22'1212.1
2014-Apr-11 00:33N 51°27' E 003°32'9 8.6
2014-Apr-10 23:33N 51°23' E 003°44'5 4.7
2014-Apr-10 22:33N 51°19' E 003°49'3 3.1
2014-Apr-10 21:31N 51°16' E 003°51'0 0.0
2014-Apr-10 20:31N 51°16' E 003°51'0 0.0
2014-Apr-10 19:25N 51°16' E 003°51'0 0.0
2014-Apr-10 18:31N 51°16' E 003°51'0 0.0
2014-Apr-10 17:28N 51°16' E 003°51'0 0.0
2014-Apr-10 16:31N 51°16' E 003°51'0 0.0
2014-Apr-10 15:28N 51°16' E 003°51'0 0.0
2014-Apr-10 14:31N 51°16' E 003°51'0 0.0
2014-Apr-10 13:31N 51°16' E 003°51'0 0.0
2014-Apr-10 12:31N 51°16' E 003°51'0 0.0
2014-Apr-10 11:28N 51°16' E 003°51'0 0.0
2014-Apr-10 10:28N 51°16' E 003°51'0 0.0
2014-Apr-10 09:31N 51°16' E 003°51'0 0.0
2014-Apr-10 08:31N 51°16' E 003°51'0 0.0
2014-Apr-10 07:31N 51°16' E 003°51'1 1.0
2014-Apr-10 06:34N 51°17' E 003°50'2 2.0
2014-Apr-10 05:34N 51°19' E 003°49'0 0.0
2014-Apr-10 04:34N 51°19' E 003°49'0 0.0
2014-Apr-10 03:33N 51°19' E 003°49'0 0.0
2014-Apr-10 02:33N 51°19' E 003°49'0 0.0
2014-Apr-10 01:33N 51°19' E 003°49'0 0.0
2014-Apr-10 00:33N 51°19' E 003°49'0 0.0
2014-Apr-09 23:33N 51°19' E 003°49'0 0.0
2014-Apr-09 22:33N 51°19' E 003°49'0 0.0
2014-Apr-09 21:34N 51°19' E 003°49'0 0.0
2014-Apr-09 20:33N 51°19' E 003°49'0 0.0
2014-Apr-09 19:34N 51°19' E 003°49'0 0.0
2014-Apr-09 18:33N 51°19' E 003°49'  

Dump ship's entire track history

sailing weather and tide predictions

Jolyn — PJWG — position and weather